sensor_id;sensor_type;location;lat;lon;timestamp;P1;durP1;ratioP1;P2;durP2;ratioP2
4957;SDS011;2494;51.872;9.688;2022-08-27T00:01:06;29.30;;;22.37;;
4957;SDS011;2494;51.872;9.688;2022-08-27T00:03:32;27.67;;;24.50;;
4957;SDS011;2494;51.872;9.688;2022-08-27T00:05:59;31.20;;;23.73;;
4957;SDS011;2494;51.872;9.688;2022-08-27T00:08:25;32.93;;;24.80;;
4957;SDS011;2494;51.872;9.688;2022-08-27T00:10:52;28.87;;;23.60;;
4957;SDS011;2494;51.872;9.688;2022-08-27T00:13:18;28.23;;;25.43;;
4957;SDS011;2494;51.872;9.688;2022-08-27T00:15:46;33.50;;;25.80;;
4957;SDS011;2494;51.872;9.688;2022-08-27T00:18:13;34.53;;;26.63;;
4957;SDS011;2494;51.872;9.688;2022-08-27T00:20:40;33.47;;;27.00;;
4957;SDS011;2494;51.872;9.688;2022-08-27T00:23:07;32.23;;;27.77;;
4957;SDS011;2494;51.872;9.688;2022-08-27T00:25:34;31.97;;;25.30;;
4957;SDS011;2494;51.872;9.688;2022-08-27T00:28:01;33.87;;;27.17;;
4957;SDS011;2494;51.872;9.688;2022-08-27T00:30:27;38.83;;;28.73;;
4957;SDS011;2494;51.872;9.688;2022-08-27T00:32:55;35.93;;;28.00;;
4957;SDS011;2494;51.872;9.688;2022-08-27T00:35:22;38.50;;;28.20;;
4957;SDS011;2494;51.872;9.688;2022-08-27T00:37:48;41.07;;;30.70;;
4957;SDS011;2494;51.872;9.688;2022-08-27T00:40:16;42.37;;;27.90;;
4957;SDS011;2494;51.872;9.688;2022-08-27T00:42:47;37.37;;;27.90;;
4957;SDS011;2494;51.872;9.688;2022-08-27T00:45:15;41.97;;;30.07;;
4957;SDS011;2494;51.872;9.688;2022-08-27T00:47:42;45.47;;;29.20;;
4957;SDS011;2494;51.872;9.688;2022-08-27T00:50:12;37.80;;;29.20;;
4957;SDS011;2494;51.872;9.688;2022-08-27T00:52:40;34.40;;;27.10;;
4957;SDS011;2494;51.872;9.688;2022-08-27T00:55:10;42.00;;;28.43;;
4957;SDS011;2494;51.872;9.688;2022-08-27T00:57:38;36.17;;;27.97;;
4957;SDS011;2494;51.872;9.688;2022-08-27T01:00:07;35.70;;;26.27;;
4957;SDS011;2494;51.872;9.688;2022-08-27T01:02:34;41.67;;;28.03;;
4957;SDS011;2494;51.872;9.688;2022-08-27T01:05:02;34.10;;;27.43;;
4957;SDS011;2494;51.872;9.688;2022-08-27T01:07:32;36.67;;;26.50;;
4957;SDS011;2494;51.872;9.688;2022-08-27T01:10:00;38.93;;;29.13;;
4957;SDS011;2494;51.872;9.688;2022-08-27T01:12:29;35.60;;;27.03;;
4957;SDS011;2494;51.872;9.688;2022-08-27T01:14:56;38.47;;;29.43;;
4957;SDS011;2494;51.872;9.688;2022-08-27T01:17:23;30.40;;;26.97;;
4957;SDS011;2494;51.872;9.688;2022-08-27T01:19:51;35.37;;;27.07;;
4957;SDS011;2494;51.872;9.688;2022-08-27T01:22:22;42.43;;;27.27;;
4957;SDS011;2494;51.872;9.688;2022-08-27T01:24:53;37.87;;;26.90;;
4957;SDS011;2494;51.872;9.688;2022-08-27T01:27:21;39.47;;;28.20;;
4957;SDS011;2494;51.872;9.688;2022-08-27T01:29:48;31.60;;;26.33;;
4957;SDS011;2494;51.872;9.688;2022-08-27T01:32:16;47.03;;;28.30;;
4957;SDS011;2494;51.872;9.688;2022-08-27T01:34:43;33.37;;;26.23;;
4957;SDS011;2494;51.872;9.688;2022-08-27T01:37:10;37.10;;;25.80;;
4957;SDS011;2494;51.872;9.688;2022-08-27T01:39:37;31.33;;;28.00;;
4957;SDS011;2494;51.872;9.688;2022-08-27T01:42:07;30.23;;;26.77;;
4957;SDS011;2494;51.872;9.688;2022-08-27T01:44:41;33.43;;;27.40;;
4957;SDS011;2494;51.872;9.688;2022-08-27T01:47:08;37.13;;;26.17;;
4957;SDS011;2494;51.872;9.688;2022-08-27T01:49:34;35.93;;;27.47;;
4957;SDS011;2494;51.872;9.688;2022-08-27T01:52:01;31.23;;;26.20;;
4957;SDS011;2494;51.872;9.688;2022-08-27T01:54:29;31.77;;;25.37;;
4957;SDS011;2494;51.872;9.688;2022-08-27T01:56:55;32.80;;;26.80;;
4957;SDS011;2494;51.872;9.688;2022-08-27T01:59:24;34.87;;;26.27;;
4957;SDS011;2494;51.872;9.688;2022-08-27T02:01:50;29.97;;;24.37;;
4957;SDS011;2494;51.872;9.688;2022-08-27T02:04:19;29.17;;;25.80;;
4957;SDS011;2494;51.872;9.688;2022-08-27T02:06:46;28.80;;;23.83;;
4957;SDS011;2494;51.872;9.688;2022-08-27T02:09:12;32.03;;;24.50;;
4957;SDS011;2494;51.872;9.688;2022-08-27T02:11:39;29.70;;;24.90;;
4957;SDS011;2494;51.872;9.688;2022-08-27T02:14:06;30.30;;;24.93;;
4957;SDS011;2494;51.872;9.688;2022-08-27T02:16:33;29.30;;;23.87;;
4957;SDS011;2494;51.872;9.688;2022-08-27T02:19:01;32.23;;;23.17;;
4957;SDS011;2494;51.872;9.688;2022-08-27T02:21:27;31.37;;;24.67;;
4957;SDS011;2494;51.872;9.688;2022-08-27T02:23:54;29.80;;;23.27;;
4957;SDS011;2494;51.872;9.688;2022-08-27T02:26:20;30.47;;;24.50;;
4957;SDS011;2494;51.872;9.688;2022-08-27T02:28:47;28.77;;;24.13;;
4957;SDS011;2494;51.872;9.688;2022-08-27T02:31:14;28.30;;;23.60;;
4957;SDS011;2494;51.872;9.688;2022-08-27T02:33:43;27.47;;;23.67;;
4957;SDS011;2494;51.872;9.688;2022-08-27T02:36:10;27.33;;;24.30;;
4957;SDS011;2494;51.872;9.688;2022-08-27T02:38:37;26.57;;;23.60;;
4957;SDS011;2494;51.872;9.688;2022-08-27T02:41:04;30.27;;;23.13;;
4957;SDS011;2494;51.872;9.688;2022-08-27T02:43:31;29.07;;;23.10;;
4957;SDS011;2494;51.872;9.688;2022-08-27T02:45:57;29.17;;;23.97;;
4957;SDS011;2494;51.872;9.688;2022-08-27T02:48:25;28.67;;;23.20;;
4957;SDS011;2494;51.872;9.688;2022-08-27T02:50:53;31.33;;;23.10;;
4957;SDS011;2494;51.872;9.688;2022-08-27T02:53:20;32.17;;;24.50;;
4957;SDS011;2494;51.872;9.688;2022-08-27T02:55:47;30.87;;;23.17;;
4957;SDS011;2494;51.872;9.688;2022-08-27T02:58:15;26.03;;;22.00;;
4957;SDS011;2494;51.872;9.688;2022-08-27T03:00:42;25.63;;;22.90;;
4957;SDS011;2494;51.872;9.688;2022-08-27T03:03:09;27.50;;;22.87;;
4957;SDS011;2494;51.872;9.688;2022-08-27T03:05:35;25.43;;;21.97;;
4957;SDS011;2494;51.872;9.688;2022-08-27T03:08:04;29.40;;;23.47;;
4957;SDS011;2494;51.872;9.688;2022-08-27T03:10:31;30.47;;;22.67;;
4957;SDS011;2494;51.872;9.688;2022-08-27T03:12:57;28.53;;;22.37;;
4957;SDS011;2494;51.872;9.688;2022-08-27T03:15:24;31.87;;;23.30;;
4957;SDS011;2494;51.872;9.688;2022-08-27T03:17:50;29.33;;;23.20;;
4957;SDS011;2494;51.872;9.688;2022-08-27T03:20:36;36.00;;;23.57;;
4957;SDS011;2494;51.872;9.688;2022-08-27T03:23:06;30.13;;;22.63;;
4957;SDS011;2494;51.872;9.688;2022-08-27T03:25:33;27.63;;;22.77;;
4957;SDS011;2494;51.872;9.688;2022-08-27T03:27:59;33.20;;;22.77;;
4957;SDS011;2494;51.872;9.688;2022-08-27T03:30:26;26.20;;;23.53;;
4957;SDS011;2494;51.872;9.688;2022-08-27T03:32:53;32.90;;;23.50;;
4957;SDS011;2494;51.872;9.688;2022-08-27T03:35:19;27.43;;;22.87;;
4957;SDS011;2494;51.872;9.688;2022-08-27T03:37:46;22.83;;;20.63;;
4957;SDS011;2494;51.872;9.688;2022-08-27T03:40:15;24.17;;;21.07;;
4957;SDS011;2494;51.872;9.688;2022-08-27T03:42:42;26.27;;;20.07;;
4957;SDS011;2494;51.872;9.688;2022-08-27T03:45:09;23.27;;;18.33;;
4957;SDS011;2494;51.872;9.688;2022-08-27T03:47:35;23.47;;;18.50;;
4957;SDS011;2494;51.872;9.688;2022-08-27T03:50:02;18.93;;;17.00;;
4957;SDS011;2494;51.872;9.688;2022-08-27T03:52:31;23.10;;;18.30;;
4957;SDS011;2494;51.872;9.688;2022-08-27T03:54:58;20.63;;;17.00;;
4957;SDS011;2494;51.872;9.688;2022-08-27T03:57:27;21.57;;;18.27;;
4957;SDS011;2494;51.872;9.688;2022-08-27T03:59:53;22.53;;;17.07;;
4957;SDS011;2494;51.872;9.688;2022-08-27T04:02:21;20.40;;;17.90;;
4957;SDS011;2494;51.872;9.688;2022-08-27T04:04:47;21.03;;;17.37;;
4957;SDS011;2494;51.872;9.688;2022-08-27T04:07:14;23.43;;;17.43;;
4957;SDS011;2494;51.872;9.688;2022-08-27T04:09:40;22.57;;;18.67;;
4957;SDS011;2494;51.872;9.688;2022-08-27T04:12:07;19.70;;;17.60;;
4957;SDS011;2494;51.872;9.688;2022-08-27T04:14:35;24.57;;;18.50;;
4957;SDS011;2494;51.872;9.688;2022-08-27T04:17:02;23.20;;;17.13;;
4957;SDS011;2494;51.872;9.688;2022-08-27T04:19:28;19.77;;;16.07;;
4957;SDS011;2494;51.872;9.688;2022-08-27T04:21:58;16.60;;;14.90;;
4957;SDS011;2494;51.872;9.688;2022-08-27T04:24:25;20.37;;;16.80;;
4957;SDS011;2494;51.872;9.688;2022-08-27T04:26:51;25.13;;;16.27;;
4957;SDS011;2494;51.872;9.688;2022-08-27T04:29:18;17.90;;;16.13;;
4957;SDS011;2494;51.872;9.688;2022-08-27T04:31:46;18.63;;;16.13;;
4957;SDS011;2494;51.872;9.688;2022-08-27T04:34:12;16.67;;;15.03;;
4957;SDS011;2494;51.872;9.688;2022-08-27T04:36:39;17.83;;;15.90;;
4957;SDS011;2494;51.872;9.688;2022-08-27T04:39:05;20.07;;;16.27;;
4957;SDS011;2494;51.872;9.688;2022-08-27T04:41:32;19.40;;;16.63;;
4957;SDS011;2494;51.872;9.688;2022-08-27T04:44:01;22.60;;;15.07;;
4957;SDS011;2494;51.872;9.688;2022-08-27T04:46:29;16.17;;;14.40;;
4957;SDS011;2494;51.872;9.688;2022-08-27T04:48:58;16.40;;;14.70;;
4957;SDS011;2494;51.872;9.688;2022-08-27T04:51:25;18.73;;;14.67;;
4957;SDS011;2494;51.872;9.688;2022-08-27T04:53:52;16.70;;;15.10;;
4957;SDS011;2494;51.872;9.688;2022-08-27T04:56:19;16.80;;;15.30;;
4957;SDS011;2494;51.872;9.688;2022-08-27T04:58:46;18.23;;;15.37;;
4957;SDS011;2494;51.872;9.688;2022-08-27T05:01:14;17.77;;;15.90;;
4957;SDS011;2494;51.872;9.688;2022-08-27T05:03:41;18.47;;;16.80;;
4957;SDS011;2494;51.872;9.688;2022-08-27T05:06:09;17.07;;;15.27;;
4957;SDS011;2494;51.872;9.688;2022-08-27T05:08:36;20.27;;;16.77;;
4957;SDS011;2494;51.872;9.688;2022-08-27T05:11:05;19.03;;;15.07;;
4957;SDS011;2494;51.872;9.688;2022-08-27T05:13:31;27.40;;;16.47;;
4957;SDS011;2494;51.872;9.688;2022-08-27T05:15:58;21.60;;;16.67;;
4957;SDS011;2494;51.872;9.688;2022-08-27T05:18:25;17.27;;;15.37;;
4957;SDS011;2494;51.872;9.688;2022-08-27T05:20:52;18.43;;;15.53;;
4957;SDS011;2494;51.872;9.688;2022-08-27T05:23:20;18.03;;;14.93;;
4957;SDS011;2494;51.872;9.688;2022-08-27T05:25:49;18.30;;;16.50;;
4957;SDS011;2494;51.872;9.688;2022-08-27T05:28:18;17.60;;;15.80;;
4957;SDS011;2494;51.872;9.688;2022-08-27T05:30:46;19.00;;;15.80;;
4957;SDS011;2494;51.872;9.688;2022-08-27T05:33:13;21.10;;;15.80;;
4957;SDS011;2494;51.872;9.688;2022-08-27T05:35:41;17.27;;;14.33;;
4957;SDS011;2494;51.872;9.688;2022-08-27T05:38:08;17.40;;;15.33;;
4957;SDS011;2494;51.872;9.688;2022-08-27T05:40:37;19.00;;;16.30;;
4957;SDS011;2494;51.872;9.688;2022-08-27T05:43:04;20.53;;;16.17;;
4957;SDS011;2494;51.872;9.688;2022-08-27T05:45:31;24.83;;;15.90;;
4957;SDS011;2494;51.872;9.688;2022-08-27T05:47:58;20.17;;;15.43;;
4957;SDS011;2494;51.872;9.688;2022-08-27T05:50:25;28.97;;;16.93;;
4957;SDS011;2494;51.872;9.688;2022-08-27T05:52:51;21.40;;;16.27;;
4957;SDS011;2494;51.872;9.688;2022-08-27T05:55:18;20.70;;;15.50;;
4957;SDS011;2494;51.872;9.688;2022-08-27T05:57:46;21.37;;;15.47;;
4957;SDS011;2494;51.872;9.688;2022-08-27T06:00:13;17.40;;;15.60;;
4957;SDS011;2494;51.872;9.688;2022-08-27T06:02:57;24.50;;;16.93;;
4957;SDS011;2494;51.872;9.688;2022-08-27T06:05:23;21.33;;;15.60;;
4957;SDS011;2494;51.872;9.688;2022-08-27T06:07:50;15.53;;;11.90;;
4957;SDS011;2494;51.872;9.688;2022-08-27T06:10:16;14.50;;;12.63;;
4957;SDS011;2494;51.872;9.688;2022-08-27T06:12:43;14.97;;;10.40;;
4957;SDS011;2494;51.872;9.688;2022-08-27T06:15:11;15.60;;;10.67;;
4957;SDS011;2494;51.872;9.688;2022-08-27T06:17:38;13.33;;;11.73;;
4957;SDS011;2494;51.872;9.688;2022-08-27T06:20:04;14.00;;;12.10;;
4957;SDS011;2494;51.872;9.688;2022-08-27T06:22:31;13.03;;;10.73;;
4957;SDS011;2494;51.872;9.688;2022-08-27T06:24:57;13.57;;;12.47;;
4957;SDS011;2494;51.872;9.688;2022-08-27T06:27:24;14.03;;;12.57;;
4957;SDS011;2494;51.872;9.688;2022-08-27T06:29:50;14.90;;;12.40;;
4957;SDS011;2494;51.872;9.688;2022-08-27T06:32:18;16.30;;;13.63;;
4957;SDS011;2494;51.872;9.688;2022-08-27T06:34:45;14.83;;;13.33;;
4957;SDS011;2494;51.872;9.688;2022-08-27T06:37:12;21.77;;;15.07;;
4957;SDS011;2494;51.872;9.688;2022-08-27T06:39:39;18.97;;;14.40;;
4957;SDS011;2494;51.872;9.688;2022-08-27T06:42:08;15.50;;;13.77;;
4957;SDS011;2494;51.872;9.688;2022-08-27T06:44:35;16.67;;;13.60;;
4957;SDS011;2494;51.872;9.688;2022-08-27T06:47:02;17.20;;;15.10;;
4957;SDS011;2494;51.872;9.688;2022-08-27T06:49:30;17.37;;;14.90;;
4957;SDS011;2494;51.872;9.688;2022-08-27T06:51:57;16.37;;;14.63;;
4957;SDS011;2494;51.872;9.688;2022-08-27T06:54:24;18.97;;;15.43;;
4957;SDS011;2494;51.872;9.688;2022-08-27T06:56:50;20.80;;;16.03;;
4957;SDS011;2494;51.872;9.688;2022-08-27T06:59:17;16.83;;;14.50;;
4957;SDS011;2494;51.872;9.688;2022-08-27T07:01:45;15.83;;;14.33;;
4957;SDS011;2494;51.872;9.688;2022-08-27T07:04:22;23.40;;;15.27;;
4957;SDS011;2494;51.872;9.688;2022-08-27T07:06:50;17.33;;;14.50;;
4957;SDS011;2494;51.872;9.688;2022-08-27T07:09:16;19.00;;;15.27;;
4957;SDS011;2494;51.872;9.688;2022-08-27T07:11:44;17.10;;;15.10;;
4957;SDS011;2494;51.872;9.688;2022-08-27T07:14:11;17.47;;;13.30;;
4957;SDS011;2494;51.872;9.688;2022-08-27T07:16:37;15.43;;;14.17;;
4957;SDS011;2494;51.872;9.688;2022-08-27T07:19:04;17.00;;;14.50;;
4957;SDS011;2494;51.872;9.688;2022-08-27T07:21:33;17.47;;;14.70;;
4957;SDS011;2494;51.872;9.688;2022-08-27T07:24:01;18.50;;;13.50;;
4957;SDS011;2494;51.872;9.688;2022-08-27T07:26:30;13.90;;;12.20;;
4957;SDS011;2494;51.872;9.688;2022-08-27T07:28:57;13.10;;;11.50;;
4957;SDS011;2494;51.872;9.688;2022-08-27T07:31:25;18.83;;;12.10;;
4957;SDS011;2494;51.872;9.688;2022-08-27T07:33:52;12.83;;;11.63;;
4957;SDS011;2494;51.872;9.688;2022-08-27T07:36:18;14.60;;;13.27;;
4957;SDS011;2494;51.872;9.688;2022-08-27T07:38:45;14.37;;;13.10;;
4957;SDS011;2494;51.872;9.688;2022-08-27T07:41:13;14.83;;;13.43;;
4957;SDS011;2494;51.872;9.688;2022-08-27T07:43:40;19.73;;;13.80;;
4957;SDS011;2494;51.872;9.688;2022-08-27T07:46:24;15.13;;;12.10;;
4957;SDS011;2494;51.872;9.688;2022-08-27T07:48:51;14.13;;;12.63;;
4957;SDS011;2494;51.872;9.688;2022-08-27T07:51:19;13.30;;;11.90;;
4957;SDS011;2494;51.872;9.688;2022-08-27T07:53:46;13.87;;;12.40;;
4957;SDS011;2494;51.872;9.688;2022-08-27T07:56:14;17.50;;;13.87;;
4957;SDS011;2494;51.872;9.688;2022-08-27T07:58:41;14.60;;;12.50;;
4957;SDS011;2494;51.872;9.688;2022-08-27T08:01:08;18.13;;;13.60;;
4957;SDS011;2494;51.872;9.688;2022-08-27T08:03:35;14.60;;;11.57;;
4957;SDS011;2494;51.872;9.688;2022-08-27T08:06:02;17.63;;;11.70;;
4957;SDS011;2494;51.872;9.688;2022-08-27T08:08:30;14.80;;;12.17;;
4957;SDS011;2494;51.872;9.688;2022-08-27T08:10:57;13.00;;;11.47;;
4957;SDS011;2494;51.872;9.688;2022-08-27T08:13:25;12.83;;;11.40;;
4957;SDS011;2494;51.872;9.688;2022-08-27T08:15:52;13.30;;;10.97;;
4957;SDS011;2494;51.872;9.688;2022-08-27T08:18:18;13.13;;;11.43;;
4957;SDS011;2494;51.872;9.688;2022-08-27T08:20:45;16.00;;;11.27;;
4957;SDS011;2494;51.872;9.688;2022-08-27T08:23:12;18.87;;;11.17;;
4957;SDS011;2494;51.872;9.688;2022-08-27T08:25:39;12.33;;;11.20;;
4957;SDS011;2494;51.872;9.688;2022-08-27T08:28:05;13.43;;;10.43;;
4957;SDS011;2494;51.872;9.688;2022-08-27T08:30:33;14.70;;;10.03;;
4957;SDS011;2494;51.872;9.688;2022-08-27T08:33:00;10.53;;;9.00;;
4957;SDS011;2494;51.872;9.688;2022-08-27T08:35:26;12.60;;;9.90;;
4957;SDS011;2494;51.872;9.688;2022-08-27T08:37:53;13.27;;;9.57;;
4957;SDS011;2494;51.872;9.688;2022-08-27T08:40:27;10.33;;;9.20;;
4957;SDS011;2494;51.872;9.688;2022-08-27T08:42:55;9.20;;;8.10;;
4957;SDS011;2494;51.872;9.688;2022-08-27T08:45:24;11.30;;;8.57;;
4957;SDS011;2494;51.872;9.688;2022-08-27T08:47:53;11.70;;;8.27;;
4957;SDS011;2494;51.872;9.688;2022-08-27T08:50:24;9.40;;;8.00;;
4957;SDS011;2494;51.872;9.688;2022-08-27T08:52:53;17.83;;;9.17;;
4957;SDS011;2494;51.872;9.688;2022-08-27T08:55:31;19.23;;;11.63;;
4957;SDS011;2494;51.872;9.688;2022-08-27T08:58:03;9.10;;;6.67;;
4957;SDS011;2494;51.872;9.688;2022-08-27T09:00:32;7.63;;;6.83;;
4957;SDS011;2494;51.872;9.688;2022-08-27T09:03:02;9.80;;;7.40;;
4957;SDS011;2494;51.872;9.688;2022-08-27T09:05:29;8.50;;;6.80;;
4957;SDS011;2494;51.872;9.688;2022-08-27T09:07:57;10.07;;;7.93;;
4957;SDS011;2494;51.872;9.688;2022-08-27T09:10:30;12.87;;;7.40;;
4957;SDS011;2494;51.872;9.688;2022-08-27T09:12:59;7.53;;;6.50;;
4957;SDS011;2494;51.872;9.688;2022-08-27T09:15:28;13.73;;;7.77;;
4957;SDS011;2494;51.872;9.688;2022-08-27T09:18:04;10.07;;;7.00;;
4957;SDS011;2494;51.872;9.688;2022-08-27T09:20:30;11.17;;;6.60;;
4957;SDS011;2494;51.872;9.688;2022-08-27T09:23:00;12.73;;;7.00;;
4957;SDS011;2494;51.872;9.688;2022-08-27T09:25:30;13.77;;;8.60;;
4957;SDS011;2494;51.872;9.688;2022-08-27T09:27:58;9.60;;;7.97;;
4957;SDS011;2494;51.872;9.688;2022-08-27T09:30:26;15.50;;;8.47;;
4957;SDS011;2494;51.872;9.688;2022-08-27T09:32:53;8.57;;;7.87;;
4957;SDS011;2494;51.872;9.688;2022-08-27T09:35:23;14.07;;;8.87;;
4957;SDS011;2494;51.872;9.688;2022-08-27T09:37:51;10.70;;;9.60;;
4957;SDS011;2494;51.872;9.688;2022-08-27T09:40:22;12.50;;;8.67;;
4957;SDS011;2494;51.872;9.688;2022-08-27T09:42:51;9.43;;;8.30;;
4957;SDS011;2494;51.872;9.688;2022-08-27T09:45:18;10.83;;;8.57;;
4957;SDS011;2494;51.872;9.688;2022-08-27T09:47:46;10.63;;;9.17;;
4957;SDS011;2494;51.872;9.688;2022-08-27T09:50:15;8.80;;;7.90;;
4957;SDS011;2494;51.872;9.688;2022-08-27T09:52:51;10.67;;;7.23;;
4957;SDS011;2494;51.872;9.688;2022-08-27T09:55:25;14.10;;;9.47;;
4957;SDS011;2494;51.872;9.688;2022-08-27T09:57:52;8.50;;;7.33;;
4957;SDS011;2494;51.872;9.688;2022-08-27T10:00:24;10.47;;;8.80;;
4957;SDS011;2494;51.872;9.688;2022-08-27T10:02:52;7.93;;;7.23;;
4957;SDS011;2494;51.872;9.688;2022-08-27T10:05:23;9.43;;;7.13;;
4957;SDS011;2494;51.872;9.688;2022-08-27T10:07:54;6.93;;;6.43;;
4957;SDS011;2494;51.872;9.688;2022-08-27T10:10:23;8.20;;;6.70;;
4957;SDS011;2494;51.872;9.688;2022-08-27T10:12:51;7.00;;;6.30;;
4957;SDS011;2494;51.872;9.688;2022-08-27T10:15:19;11.17;;;6.43;;
4957;SDS011;2494;51.872;9.688;2022-08-27T10:17:49;7.80;;;5.80;;
4957;SDS011;2494;51.872;9.688;2022-08-27T10:20:20;7.83;;;6.40;;
4957;SDS011;2494;51.872;9.688;2022-08-27T10:22:53;9.10;;;6.30;;
4957;SDS011;2494;51.872;9.688;2022-08-27T10:25:24;6.97;;;6.17;;
4957;SDS011;2494;51.872;9.688;2022-08-27T10:27:55;7.63;;;6.03;;
4957;SDS011;2494;51.872;9.688;2022-08-27T10:30:25;6.67;;;6.10;;
4957;SDS011;2494;51.872;9.688;2022-08-27T10:32:59;7.30;;;6.50;;
4957;SDS011;2494;51.872;9.688;2022-08-27T10:35:27;7.27;;;6.57;;
4957;SDS011;2494;51.872;9.688;2022-08-27T10:37:59;8.20;;;6.80;;
4957;SDS011;2494;51.872;9.688;2022-08-27T10:40:32;10.43;;;6.63;;
4957;SDS011;2494;51.872;9.688;2022-08-27T10:43:03;6.83;;;6.30;;
4957;SDS011;2494;51.872;9.688;2022-08-27T10:45:35;9.70;;;6.27;;
4957;SDS011;2494;51.872;9.688;2022-08-27T10:48:08;7.47;;;5.83;;
4957;SDS011;2494;51.872;9.688;2022-08-27T10:50:38;5.90;;;5.43;;
4957;SDS011;2494;51.872;9.688;2022-08-27T10:53:08;8.03;;;5.80;;
4957;SDS011;2494;51.872;9.688;2022-08-27T10:55:37;6.90;;;5.37;;
4957;SDS011;2494;51.872;9.688;2022-08-27T10:58:09;7.50;;;5.47;;
4957;SDS011;2494;51.872;9.688;2022-08-27T11:00:39;7.87;;;7.07;;
4957;SDS011;2494;51.872;9.688;2022-08-27T11:03:08;6.83;;;6.27;;
4957;SDS011;2494;51.872;9.688;2022-08-27T11:05:35;8.23;;;6.27;;
4957;SDS011;2494;51.872;9.688;2022-08-27T11:08:05;6.00;;;5.60;;
4957;SDS011;2494;51.872;9.688;2022-08-27T11:10:33;6.67;;;5.67;;
4957;SDS011;2494;51.872;9.688;2022-08-27T11:13:04;7.03;;;6.53;;
4957;SDS011;2494;51.872;9.688;2022-08-27T11:15:33;8.73;;;6.63;;
4957;SDS011;2494;51.872;9.688;2022-08-27T11:18:01;7.50;;;6.90;;
4957;SDS011;2494;51.872;9.688;2022-08-27T11:20:31;8.20;;;6.07;;
4957;SDS011;2494;51.872;9.688;2022-08-27T11:23:01;10.20;;;6.00;;
4957;SDS011;2494;51.872;9.688;2022-08-27T11:25:33;7.30;;;6.57;;
4957;SDS011;2494;51.872;9.688;2022-08-27T11:28:05;10.07;;;6.67;;
4957;SDS011;2494;51.872;9.688;2022-08-27T11:30:34;6.57;;;6.07;;
4957;SDS011;2494;51.872;9.688;2022-08-27T11:33:07;6.43;;;5.43;;
4957;SDS011;2494;51.872;9.688;2022-08-27T11:35:39;11.40;;;5.30;;
4957;SDS011;2494;51.872;9.688;2022-08-27T11:38:19;7.83;;;5.50;;
4957;SDS011;2494;51.872;9.688;2022-08-27T11:41:00;6.83;;;4.97;;
4957;SDS011;2494;51.872;9.688;2022-08-27T11:43:31;5.17;;;4.67;;
4957;SDS011;2494;51.872;9.688;2022-08-27T11:45:59;9.90;;;6.10;;
4957;SDS011;2494;51.872;9.688;2022-08-27T11:48:27;10.23;;;6.30;;
4957;SDS011;2494;51.872;9.688;2022-08-27T11:50:55;6.30;;;5.80;;
4957;SDS011;2494;51.872;9.688;2022-08-27T11:53:23;6.93;;;6.43;;
4957;SDS011;2494;51.872;9.688;2022-08-27T11:55:49;11.10;;;6.70;;
4957;SDS011;2494;51.872;9.688;2022-08-27T11:58:22;7.13;;;6.53;;
4957;SDS011;2494;51.872;9.688;2022-08-27T12:00:59;7.63;;;7.03;;
4957;SDS011;2494;51.872;9.688;2022-08-27T12:03:27;11.77;;;7.43;;
4957;SDS011;2494;51.872;9.688;2022-08-27T12:06:07;8.10;;;7.30;;
4957;SDS011;2494;51.872;9.688;2022-08-27T12:08:34;8.00;;;7.37;;
4957;SDS011;2494;51.872;9.688;2022-08-27T12:11:07;8.73;;;7.83;;
4957;SDS011;2494;51.872;9.688;2022-08-27T12:13:37;11.97;;;7.83;;
4957;SDS011;2494;51.872;9.688;2022-08-27T12:16:12;10.10;;;9.23;;
4957;SDS011;2494;51.872;9.688;2022-08-27T12:18:48;9.07;;;8.17;;
4957;SDS011;2494;51.872;9.688;2022-08-27T12:21:20;8.40;;;6.90;;
4957;SDS011;2494;51.872;9.688;2022-08-27T12:23:49;7.57;;;6.60;;
4957;SDS011;2494;51.872;9.688;2022-08-27T12:26:28;7.70;;;7.00;;
4957;SDS011;2494;51.872;9.688;2022-08-27T12:31:40;7.67;;;7.07;;
4957;SDS011;2494;51.872;9.688;2022-08-27T12:34:11;9.33;;;8.03;;
4957;SDS011;2494;51.872;9.688;2022-08-27T12:36:39;8.50;;;7.80;;
4957;SDS011;2494;51.872;9.688;2022-08-27T12:39:10;7.07;;;6.47;;
4957;SDS011;2494;51.872;9.688;2022-08-27T12:41:37;9.37;;;8.07;;
4957;SDS011;2494;51.872;9.688;2022-08-27T12:44:10;7.43;;;6.77;;
4957;SDS011;2494;51.872;9.688;2022-08-27T12:46:37;7.83;;;7.20;;
4957;SDS011;2494;51.872;9.688;2022-08-27T12:49:11;7.17;;;6.57;;
4957;SDS011;2494;51.872;9.688;2022-08-27T12:51:39;7.37;;;6.87;;
4957;SDS011;2494;51.872;9.688;2022-08-27T12:54:07;8.33;;;7.63;;
4957;SDS011;2494;51.872;9.688;2022-08-27T12:56:48;15.33;;;8.30;;
4957;SDS011;2494;51.872;9.688;2022-08-27T13:02:14;9.50;;;7.33;;
4957;SDS011;2494;51.872;9.688;2022-08-27T13:04:45;9.43;;;8.10;;
4957;SDS011;2494;51.872;9.688;2022-08-27T13:07:12;9.70;;;8.60;;
4957;SDS011;2494;51.872;9.688;2022-08-27T13:09:38;15.13;;;8.80;;
4957;SDS011;2494;51.872;9.688;2022-08-27T13:12:06;9.33;;;8.53;;
4957;SDS011;2494;51.872;9.688;2022-08-27T13:14:39;10.50;;;8.00;;
4957;SDS011;2494;51.872;9.688;2022-08-27T13:17:07;14.10;;;7.97;;
4957;SDS011;2494;51.872;9.688;2022-08-27T13:19:34;9.30;;;8.60;;
4957;SDS011;2494;51.872;9.688;2022-08-27T13:22:03;10.03;;;8.40;;
4957;SDS011;2494;51.872;9.688;2022-08-27T13:24:32;9.10;;;7.60;;
4957;SDS011;2494;51.872;9.688;2022-08-27T13:27:00;8.80;;;8.10;;
4957;SDS011;2494;51.872;9.688;2022-08-27T13:29:27;11.37;;;8.33;;
4957;SDS011;2494;51.872;9.688;2022-08-27T13:31:54;14.07;;;8.37;;
4957;SDS011;2494;51.872;9.688;2022-08-27T13:34:22;13.50;;;7.73;;
4957;SDS011;2494;51.872;9.688;2022-08-27T13:36:50;8.20;;;7.37;;
4957;SDS011;2494;51.872;9.688;2022-08-27T13:39:19;9.20;;;7.77;;
4957;SDS011;2494;51.872;9.688;2022-08-27T13:41:46;8.40;;;6.97;;
4957;SDS011;2494;51.872;9.688;2022-08-27T13:44:14;14.00;;;7.50;;
4957;SDS011;2494;51.872;9.688;2022-08-27T13:46:45;8.40;;;6.80;;
4957;SDS011;2494;51.872;9.688;2022-08-27T13:49:13;8.90;;;7.23;;
4957;SDS011;2494;51.872;9.688;2022-08-27T13:51:42;13.03;;;6.63;;
4957;SDS011;2494;51.872;9.688;2022-08-27T13:54:09;7.50;;;5.73;;
4957;SDS011;2494;51.872;9.688;2022-08-27T13:56:53;7.00;;;6.07;;
4957;SDS011;2494;51.872;9.688;2022-08-27T13:59:22;10.77;;;6.17;;
4957;SDS011;2494;51.872;9.688;2022-08-27T14:01:53;5.50;;;5.03;;
4957;SDS011;2494;51.872;9.688;2022-08-27T14:04:20;5.63;;;4.83;;
4957;SDS011;2494;51.872;9.688;2022-08-27T14:06:47;6.90;;;3.97;;
4957;SDS011;2494;51.872;9.688;2022-08-27T14:09:15;6.50;;;4.43;;
4957;SDS011;2494;51.872;9.688;2022-08-27T14:11:44;5.90;;;4.60;;
4957;SDS011;2494;51.872;9.688;2022-08-27T14:14:11;7.30;;;4.10;;
4957;SDS011;2494;51.872;9.688;2022-08-27T14:16:38;5.00;;;4.50;;
4957;SDS011;2494;51.872;9.688;2022-08-27T14:19:05;9.70;;;5.57;;
4957;SDS011;2494;51.872;9.688;2022-08-27T14:21:32;4.10;;;3.70;;
4957;SDS011;2494;51.872;9.688;2022-08-27T14:23:59;5.63;;;3.83;;
4957;SDS011;2494;51.872;9.688;2022-08-27T14:26:25;4.07;;;3.67;;
4957;SDS011;2494;51.872;9.688;2022-08-27T14:28:54;5.37;;;2.83;;
4957;SDS011;2494;51.872;9.688;2022-08-27T14:31:21;7.37;;;3.20;;
4957;SDS011;2494;51.872;9.688;2022-08-27T14:33:48;4.30;;;3.20;;
4957;SDS011;2494;51.872;9.688;2022-08-27T14:36:19;5.70;;;2.63;;
4957;SDS011;2494;51.872;9.688;2022-08-27T14:38:47;8.13;;;3.53;;
4957;SDS011;2494;51.872;9.688;2022-08-27T14:41:13;8.40;;;2.80;;
4957;SDS011;2494;51.872;9.688;2022-08-27T14:43:40;8.40;;;3.07;;
4957;SDS011;2494;51.872;9.688;2022-08-27T14:46:10;5.90;;;3.13;;
4957;SDS011;2494;51.872;9.688;2022-08-27T14:48:40;13.33;;;3.30;;
4957;SDS011;2494;51.872;9.688;2022-08-27T14:51:10;5.60;;;2.83;;
4957;SDS011;2494;51.872;9.688;2022-08-27T14:53:37;3.67;;;2.90;;
4957;SDS011;2494;51.872;9.688;2022-08-27T14:56:03;4.40;;;2.73;;
4957;SDS011;2494;51.872;9.688;2022-08-27T14:58:30;7.43;;;2.83;;
4957;SDS011;2494;51.872;9.688;2022-08-27T15:00:57;3.83;;;2.60;;
4957;SDS011;2494;51.872;9.688;2022-08-27T15:03:25;6.57;;;3.20;;
4957;SDS011;2494;51.872;9.688;2022-08-27T15:05:52;6.27;;;2.73;;
4957;SDS011;2494;51.872;9.688;2022-08-27T15:08:20;4.33;;;2.77;;
4957;SDS011;2494;51.872;9.688;2022-08-27T15:10:46;5.70;;;2.70;;